Time;durP1;ratioP1;P1;durP2;ratioP2;P2;SDS_P1;SDS_P2;PMS_P1;PMS_P2;Temp;Humidity;BMP_temperature;BMP_pressure;BME280_temperature;BME280_humidity;BME280_pressure;Samples;Min_cycle;Max_cycle;Signal;HPM_P1;HPM_P2
2024/03/10 00:02:49;;;;;;;30.07;23.03;;;;;;;5.80;100.00;100513.31;7750174;22;20270;-71
2024/03/10 00:06:12;;;;;;;27.33;21.43;;;;;;;5.85;100.00;100509.34;7771682;22;20552;-69
2024/03/10 00:09:33;;;;;;;21.13;18.53;;;;;;;5.81;100.00;100510.53;7776843;22;20557;-70
2024/03/10 00:12:54;;;;;;;25.63;21.57;;;;;;;5.77;100.00;100509.03;7767913;22;20211;-72
2024/03/10 00:16:15;;;;;;;23.47;20.83;;;;;;;5.80;100.00;100507.97;7770585;22;20560;-70
2024/03/10 00:19:36;;;;;;;29.97;22.23;;;;;;;5.75;100.00;100499.41;7774272;22;20245;-70
2024/03/10 00:22:58;;;;;;;25.27;20.73;;;;;;;5.76;100.00;100491.28;7771197;22;20218;-72
2024/03/10 00:26:19;;;;;;;23.87;20.03;;;;;;;5.73;100.00;100499.53;7773141;22;20210;-71
2024/03/10 00:29:40;;;;;;;23.00;18.60;;;;;;;5.74;100.00;100487.03;7778571;22;20214;-71
2024/03/10 00:33:01;;;;;;;27.60;22.10;;;;;;;5.70;100.00;100489.06;7767001;22;20222;-71
2024/03/10 00:36:22;;;;;;;26.07;20.47;;;;;;;5.63;100.00;100485.16;7771787;22;20214;-71
2024/03/10 00:39:44;;;;;;;22.83;17.90;;;;;;;5.67;100.00;100490.16;7777420;22;20206;-71
2024/03/10 00:43:05;;;;;;;26.07;19.50;;;;;;;5.62;100.00;100481.63;7772703;22;20210;-70
2024/03/10 00:46:26;;;;;;;35.33;21.60;;;;;;;5.62;100.00;100489.66;7774480;22;21666;-71
2024/03/10 00:49:47;;;;;;;21.60;18.17;;;;;;;5.60;100.00;100482.72;7779634;22;20210;-71
2024/03/10 00:53:08;;;;;;;24.47;19.53;;;;;;;5.58;100.00;100490.00;7779808;22;20210;-71
2024/03/10 00:56:30;;;;;;;25.87;19.87;;;;;;;5.59;100.00;100486.38;7775856;22;20236;-71
2024/03/10 00:59:51;;;;;;;27.10;17.37;;;;;;;5.58;100.00;100487.31;7777878;22;20206;-71
2024/03/10 01:03:12;;;;;;;24.00;20.93;;;;;;;5.55;100.00;100484.84;7777587;22;20293;-70
2024/03/10 01:06:33;;;;;;;22.53;19.50;;;;;;;5.50;100.00;100481.69;7770105;22;20562;-71
2024/03/10 01:09:54;;;;;;;24.20;19.43;;;;;;;5.53;100.00;100482.31;7758374;22;20214;-70
2024/03/10 01:13:16;;;;;;;22.53;20.17;;;;;;;5.52;100.00;100477.94;7779768;22;20210;-71
2024/03/10 01:16:38;;;;;;;22.03;18.17;;;;;;;5.53;100.00;100476.09;7769175;22;20219;-70
2024/03/10 01:20:00;;;;;;;20.93;18.73;;;;;;;5.51;100.00;100484.25;7778406;22;20206;-71
2024/03/10 01:23:21;;;;;;;23.90;20.43;;;;;;;5.41;100.00;100475.19;7778370;22;20676;-71
2024/03/10 01:26:42;;;;;;;24.37;20.57;;;;;;;5.49;100.00;100470.13;7775244;22;20218;-71
2024/03/10 01:30:06;;;;;;;31.87;22.07;;;;;;;5.43;100.00;100473.28;7780403;22;20207;-70
2024/03/10 01:33:26;;;;;;;25.60;19.10;;;;;;;5.48;100.00;100468.44;7769263;22;20470;-70
2024/03/10 01:36:47;;;;;;;22.57;19.73;;;;;;;5.41;100.00;100472.53;7769233;22;20218;-70
2024/03/10 01:40:09;;;;;;;27.93;22.60;;;;;;;5.42;100.00;100465.38;7763097;22;20301;-70
2024/03/10 01:43:30;;;;;;;23.53;19.97;;;;;;;5.47;100.00;100474.75;7777958;22;20207;-71
2024/03/10 01:46:53;;;;;;;22.83;20.33;;;;;;;5.41;100.00;100474.34;7733413;22;20900;-71
2024/03/10 01:50:15;;;;;;;22.90;19.33;;;;;;;5.45;100.00;100474.00;7776349;22;20210;-71
2024/03/10 01:53:38;;;;;;;24.27;18.97;;;;;;;5.43;100.00;100469.72;7782260;22;20309;-71
2024/03/10 01:56:59;;;;;;;23.27;19.10;;;;;;;5.43;100.00;100472.41;7776338;22;20202;-71
2024/03/10 02:00:21;;;;;;;26.90;21.67;;;;;;;5.35;100.00;100478.34;7737683;22;20242;-71
2024/03/10 02:03:44;;;;;;;27.80;19.83;;;;;;;5.36;100.00;100482.69;7777835;22;20211;-72
2024/03/10 02:07:05;;;;;;;23.83;19.43;;;;;;;5.41;100.00;100467.19;7773308;22;20215;-72
2024/03/10 02:10:26;;;;;;;24.90;21.30;;;;;;;5.39;100.00;100469.13;7744893;22;20222;-71
2024/03/10 02:13:48;;;;;;;24.67;19.50;;;;;;;5.30;100.00;100458.28;7776200;22;20215;-71
2024/03/10 02:17:10;;;;;;;22.63;19.67;;;;;;;5.23;100.00;100463.22;7755809;22;20214;-69
2024/03/10 02:20:33;;;;;;;22.90;20.43;;;;;;;5.27;100.00;100461.16;7772036;22;20297;-71
2024/03/10 02:24:01;;;;;;;28.70;20.90;;;;;;;5.28;100.00;100454.81;7755204;22;20456;-72
2024/03/10 02:27:24;;;;;;;23.70;19.53;;;;;;;5.19;100.00;100452.84;7772377;22;20214;-70
2024/03/10 02:30:55;;;;;;;27.20;21.43;;;;;;;5.15;100.00;100454.91;7773457;22;20213;-70
2024/03/10 02:48:53;;;;;;;25.30;18.93;;;;;;;5.22;100.00;100456.13;7738911;23;20215;-71
2024/03/10 02:52:14;;;;;;;27.07;21.37;;;;;;;5.20;100.00;100451.88;7731351;23;20290;-71
2024/03/10 02:55:35;;;;;;;28.23;19.97;;;;;;;5.15;100.00;100446.03;7735948;23;20211;-70
2024/03/10 02:58:58;;;;;;;23.00;19.70;;;;;;;5.13;100.00;100451.47;7741939;23;20254;-71
2024/03/10 03:02:22;;;;;;;26.60;20.07;;;;;;;5.10;100.00;100445.50;7731379;23;20207;-71
2024/03/10 03:05:43;;;;;;;23.00;19.60;;;;;;;5.13;100.00;100458.66;7731835;23;20211;-70
2024/03/10 03:09:05;;;;;;;26.37;19.60;;;;;;;5.11;100.00;100450.72;7740613;23;20289;-71
2024/03/10 03:12:26;;;;;;;26.53;19.60;;;;;;;5.08;100.00;100448.28;7730062;23;20211;-71
2024/03/10 03:15:47;;;;;;;24.73;21.13;;;;;;;5.05;100.00;100442.34;7732178;22;20215;-70
2024/03/10 03:19:12;;;;;;;25.00;21.80;;;;;;;5.08;100.00;100444.75;7739773;23;20250;-71
2024/03/10 03:22:33;;;;;;;24.20;20.23;;;;;;;5.08;100.00;100439.41;7732048;23;20218;-70
2024/03/10 03:25:54;;;;;;;29.23;21.50;;;;;;;5.00;100.00;100433.78;7731134;23;20214;-71
2024/03/10 03:29:15;;;;;;;27.60;20.93;;;;;;;4.96;100.00;100438.50;7741988;23;20214;-71
2024/03/10 03:32:37;;;;;;;25.27;20.87;;;;;;;4.99;100.00;100437.41;7731682;23;20554;-70
2024/03/10 03:36:00;;;;;;;30.40;23.03;;;;;;;4.96;100.00;100434.97;7729898;23;20662;-71
2024/03/10 03:39:22;;;;;;;24.80;18.87;;;;;;;4.97;100.00;100434.84;7738534;23;20214;-72
2024/03/10 03:42:44;;;;;;;22.23;19.67;;;;;;;4.99;100.00;100440.06;7729769;22;20214;-71
2024/03/10 03:46:08;;;;;;;26.27;19.40;;;;;;;4.98;100.00;100436.56;7766695;22;20214;-71
2024/03/10 03:49:29;;;;;;;24.53;20.03;;;;;;;4.95;100.00;100441.28;7751056;22;20553;-71
2024/03/10 03:52:52;;;;;;;27.30;21.90;;;;;;;4.88;100.00;100444.38;7741897;22;20203;-71
2024/03/10 03:56:15;;;;;;;21.67;19.43;;;;;;;4.89;100.00;100437.25;7766159;22;20447;-71
2024/03/10 03:59:38;;;;;;;33.93;23.80;;;;;;;4.92;100.00;100436.16;7780022;22;20210;-71
2024/03/10 04:02:59;;;;;;;25.53;22.10;;;;;;;4.86;100.00;100440.13;7745946;22;20206;-71
2024/03/10 04:06:20;;;;;;;23.07;19.53;;;;;;;4.87;100.00;100441.84;7771752;22;20214;-70
2024/03/10 04:09:42;;;;;;;28.80;20.30;;;;;;;4.88;100.00;100443.56;7757687;22;20306;-70
2024/03/10 04:13:05;;;;;;;23.83;20.53;;;;;;;4.86;100.00;100440.97;7772282;22;20213;-71
2024/03/10 04:16:26;;;;;;;25.00;21.20;;;;;;;4.83;100.00;100453.72;7770123;22;20218;-71
2024/03/10 04:19:47;;;;;;;23.73;19.40;;;;;;;4.82;100.00;100436.81;7778626;22;20210;-71
2024/03/10 04:23:08;;;;;;;30.17;21.10;;;;;;;4.79;100.00;100434.38;7732879;22;20557;-72
2024/03/10 04:26:30;;;;;;;25.00;21.90;;;;;;;4.80;100.00;100433.41;7772359;22;20521;-70
2024/03/10 04:29:51;;;;;;;21.97;19.40;;;;;;;4.82;100.00;100436.81;7779736;22;20206;-71
2024/03/10 04:33:12;;;;;;;23.17;20.67;;;;;;;4.80;100.00;100433.41;7775120;22;20805;-71
2024/03/10 04:36:34;;;;;;;29.40;21.60;;;;;;;4.77;100.00;100443.47;7774461;22;20213;-70
2024/03/10 04:39:55;;;;;;;24.80;20.80;;;;;;;4.75;100.00;100445.41;7777785;22;20577;-70
2024/03/10 04:43:17;;;;;;;25.17;19.90;;;;;;;4.69;100.00;100446.66;7777433;22;20293;-71
2024/03/10 04:46:39;;;;;;;26.13;19.97;;;;;;;4.64;100.00;100445.31;7770792;22;20253;-71
2024/03/10 04:49:59;;;;;;;29.17;21.30;;;;;;;4.64;100.00;100437.28;7776609;22;20218;-71
2024/03/10 04:53:20;;;;;;;22.70;18.87;;;;;;;4.69;100.00;100430.66;7774919;22;20454;-71
2024/03/10 04:56:42;;;;;;;21.33;19.10;;;;;;;4.68;100.00;100423.63;7763301;22;20240;-71
2024/03/10 05:00:10;;;;;;;26.27;21.13;;;;;;;4.67;100.00;100427.25;7749814;22;20210;-71
2024/03/10 05:03:30;;;;;;;24.53;20.83;;;;;;;4.67;100.00;100435.25;7738282;22;20438;-71
2024/03/10 05:06:51;;;;;;;25.10;22.23;;;;;;;4.72;100.00;100422.44;7711673;22;20211;-72
2024/03/10 05:10:12;;;;;;;23.87;21.00;;;;;;;4.71;100.00;100412.69;7774932;22;20483;-69
2024/03/10 05:13:34;;;;;;;25.97;19.80;;;;;;;4.66;100.00;100409.53;7780456;22;20207;-71
2024/03/10 05:16:59;;;;;;;27.40;20.43;;;;;;;4.66;100.00;100422.03;7768502;22;20214;-71
2024/03/10 05:20:23;;;;;;;25.37;21.33;;;;;;;4.56;100.00;100423.66;7770752;22;20285;-71
2024/03/10 05:23:43;;;;;;;23.97;19.03;;;;;;;4.61;100.00;100424.19;7756489;22;20218;-71
2024/03/10 05:27:05;;;;;;;24.83;20.33;;;;;;;4.63;100.00;100419.59;7774550;22;20206;-71
2024/03/10 05:30:26;;;;;;;30.23;22.37;;;;;;;4.64;100.00;100416.81;7769161;22;20745;-70
2024/03/10 05:33:48;;;;;;;22.17;19.80;;;;;;;4.62;100.00;100423.19;7755174;22;20217;-72
2024/03/10 05:37:09;;;;;;;24.10;20.70;;;;;;;4.65;100.00;100428.34;7775292;22;20206;-70
2024/03/10 05:40:30;;;;;;;25.93;21.70;;;;;;;4.64;100.00;100429.28;7772171;22;20632;-71
2024/03/10 05:43:51;;;;;;;26.60;21.80;;;;;;;4.72;100.00;100422.44;7779039;22;20214;-71
2024/03/10 05:47:14;;;;;;;27.80;22.33;;;;;;;4.62;100.00;100426.72;7767019;22;20646;-70
2024/03/10 05:50:36;;;;;;;23.43;20.97;;;;;;;4.62;100.00;100420.53;7773685;22;20226;-70
2024/03/10 05:53:57;;;;;;;25.60;20.47;;;;;;;4.63;100.00;100416.91;7777518;22;20206;-70
2024/03/10 05:57:18;;;;;;;27.03;20.57;;;;;;;4.67;100.00;100415.72;7774817;22;20251;-71
2024/03/10 06:00:39;;;;;;;27.83;22.23;;;;;;;4.73;100.00;100418.81;7725062;22;20639;-69
2024/03/10 06:04:00;;;;;;;25.37;20.60;;;;;;;4.75;100.00;100416.88;7778025;22;20207;-70
2024/03/10 06:07:22;;;;;;;23.63;18.93;;;;;;;4.79;100.00;100415.69;7771675;22;20206;-71
2024/03/10 06:14:12;;;;;;;26.30;20.77;;;;;;;4.78;100.00;100416.66;7743377;23;20222;-70
2024/03/10 06:17:33;;;;;;;25.60;21.37;;;;;;;4.85;100.00;100422.41;7735044;23;20215;-71
2024/03/10 06:28:12;;;;;;;31.00;23.80;;;;;;;4.69;100.00;100411.97;7732721;23;20215;-71
2024/03/10 06:31:33;;;;;;;23.87;18.80;;;;;;;4.93;100.00;100411.16;7711574;23;20207;-71
2024/03/10 06:34:55;;;;;;;26.23;19.67;;;;;;;5.04;100.00;100409.41;7738819;23;20212;-71
2024/03/10 06:38:18;;;;;;;23.57;20.63;;;;;;;5.11;100.00;100410.66;7738162;23;20215;-71
2024/03/10 06:41:41;;;;;;;27.40;20.53;;;;;;;5.26;100.00;100401.50;7729885;23;20216;-70
2024/03/10 06:45:01;;;;;;;25.87;22.70;;;;;;;5.32;100.00;100406.38;7740726;23;20207;-70
2024/03/10 06:48:22;;;;;;;22.77;20.33;;;;;;;5.28;100.00;100412.06;7735174;23;20621;-71
2024/03/10 06:51:44;;;;;;;27.97;23.73;;;;;;;5.40;100.00;100413.84;7719073;23;20275;-71
2024/03/10 06:55:07;;;;;;;24.37;20.33;;;;;;;5.55;100.00;100410.88;7736490;23;20215;-73
2024/03/10 06:58:30;;;;;;;25.27;21.20;;;;;;;5.57;100.00;100411.59;7710122;23;20227;-70
2024/03/10 07:01:55;;;;;;;27.40;23.87;;;;;;;5.52;100.00;100399.56;7725446;23;20302;-70
2024/03/10 07:05:15;;;;;;;26.87;19.80;;;;;;;5.69;100.00;100407.16;7729791;23;20207;-71
2024/03/10 07:08:36;;;;;;;31.70;21.80;;;;;;;5.77;100.00;100404.75;7739511;23;20211;-72
2024/03/10 07:11:57;;;;;;;24.87;21.20;;;;;;;5.83;100.00;100406.94;7731639;23;20222;-70
2024/03/10 07:15:20;;;;;;;25.07;22.10;;;;;;;5.92;100.00;100398.25;7735822;23;20521;-71
2024/03/10 07:18:41;;;;;;;24.40;20.50;;;;;;;6.02;100.00;100391.22;7732584;23;20680;-71
2024/03/10 07:22:02;;;;;;;27.80;21.93;;;;;;;5.96;100.00;100397.06;7732878;23;20762;-68
2024/03/10 07:25:25;;;;;;;22.47;20.07;;;;;;;5.94;100.00;100396.31;7727062;23;20211;-68
2024/03/10 07:28:46;;;;;;;29.30;20.87;;;;;;;5.95;100.00;100400.69;7741313;23;20210;-69
2024/03/10 07:32:08;;;;;;;25.17;20.47;;;;;;;5.99;100.00;100395.94;7731129;23;20215;-68
2024/03/10 07:35:30;;;;;;;25.93;20.53;;;;;;;6.25;100.00;100395.63;7726226;23;20244;-69
2024/03/10 07:38:51;;;;;;;27.47;23.10;;;;;;;6.20;100.00;100388.91;7741846;23;20290;-69
2024/03/10 07:42:13;;;;;;;29.03;24.40;;;;;;;6.35;100.00;100388.56;7706187;23;20221;-68
2024/03/10 07:45:35;;;;;;;23.03;20.07;;;;;;;6.45;100.00;100392.22;7736665;23;20215;-70
2024/03/10 07:49:00;;;;;;;30.93;21.97;;;;;;;6.61;100.00;100388.31;7740607;23;20211;-69
2024/03/10 07:52:22;;;;;;;28.20;22.13;;;;;;;6.76;100.00;100384.41;7731541;23;20226;-69
2024/03/10 07:55:43;;;;;;;26.97;24.00;;;;;;;6.82;100.00;100383.91;7733385;23;20549;-69
2024/03/10 07:59:04;;;;;;;26.70;22.00;;;;;;;6.87;100.00;100371.84;7739535;23;20223;-68
2024/03/10 08:02:25;;;;;;;26.07;21.83;;;;;;;6.93;100.00;100383.88;7713910;23;20226;-69
2024/03/10 08:05:47;;;;;;;26.93;20.70;;;;;;;7.07;100.00;100381.75;7721042;23;20516;-70
2024/03/10 08:09:09;;;;;;;32.27;22.33;;;;;;;7.33;100.00;100376.06;7738366;23;20215;-69
2024/03/10 08:12:30;;;;;;;27.47;22.40;;;;;;;7.59;100.00;100366.72;7734713;23;20220;-70
2024/03/10 08:15:51;;;;;;;26.03;22.37;;;;;;;7.57;100.00;100376.72;7717735;23;20214;-69
2024/03/10 08:19:12;;;;;;;26.13;23.33;;;;;;;7.51;100.00;100377.25;7738372;23;20514;-68
2024/03/10 08:22:34;;;;;;;25.90;22.37;;;;;;;7.55;100.00;100384.88;7734230;23;20204;-69
2024/03/10 08:25:55;;;;;;;23.30;20.57;;;;;;;7.90;100.00;100389.94;7733798;23;20207;-69
2024/03/10 08:29:16;;;;;;;24.03;21.00;;;;;;;8.10;100.00;100389.06;7737635;23;20211;-70
2024/03/10 08:32:37;;;;;;;27.60;23.43;;;;;;;8.21;100.00;100406.94;7733047;23;20261;-70
2024/03/10 08:35:58;;;;;;;28.30;22.20;;;;;;;8.04;100.00;100409.25;7731702;23;20214;-70
2024/03/10 08:39:21;;;;;;;25.03;20.20;;;;;;;8.31;100.00;100402.50;7738827;23;20215;-69
2024/03/10 08:42:45;;;;;;;27.53;21.13;;;;;;;8.47;100.00;100408.25;7692641;23;20293;-70
2024/03/10 08:46:06;;;;;;;24.83;21.40;;;;;;;8.63;100.00;100408.59;7734084;23;20250;-69
2024/03/10 08:49:27;;;;;;;23.43;19.93;;;;;;;8.93;100.00;100411.25;7736819;23;20542;-70
2024/03/10 08:52:49;;;;;;;26.33;20.73;;;;;;;9.16;100.00;100403.78;7716396;23;20211;-69
2024/03/10 08:56:14;;;;;;;27.30;22.40;;;;;;;9.35;100.00;100407.38;7729619;23;20554;-70
2024/03/10 08:59:35;;;;;;;22.80;20.33;;;;;;;9.28;100.00;100387.38;7721603;23;20262;-68
2024/03/10 09:02:55;;;;;;;25.73;22.40;;;;;;;9.47;100.00;100383.88;7735132;23;20569;-68
2024/03/10 09:06:17;;;;;;;25.50;22.37;;;;;;;9.51;100.00;100388.81;7732178;22;20219;-70
2024/03/10 09:09:39;;;;;;;22.47;19.67;;;;;;;9.54;100.00;100390.38;7738852;23;20219;-71
2024/03/10 09:13:02;;;;;;;26.97;20.80;;;;;;;9.75;100.00;100395.63;7733213;23;20502;-70
2024/03/10 09:16:22;;;;;;;27.00;22.30;;;;;;;9.65;100.00;100388.41;7730893;23;20533;-70
2024/03/10 09:19:44;;;;;;;27.60;20.77;;;;;;;9.64;100.00;100389.41;7737244;23;20222;-70
2024/03/10 09:23:05;;;;;;;22.73;20.40;;;;;;;10.10;100.00;100377.00;7729624;23;20211;-70
2024/03/10 09:26:28;;;;;;;22.90;20.50;;;;;;;10.41;100.00;100376.66;7711235;23;20565;-69
2024/03/10 09:29:51;;;;;;;21.37;18.60;;;;;;;10.68;100.00;100369.63;7734207;23;20215;-67
2024/03/10 09:33:12;;;;;;;25.00;21.87;;;;;;;11.04;100.00;100368.69;7734263;23;20303;-66
2024/03/10 09:36:33;;;;;;;28.33;24.90;;;;;;;11.93;100.00;100365.84;7729722;23;20430;-68
2024/03/10 09:39:54;;;;;;;692.23;389.83;;;;;;;13.05;100.00;100361.25;7737879;23;20215;-69
2024/03/10 09:43:15;;;;;;;160.37;128.97;;;;;;;13.32;100.00;100361.84;7739969;23;20214;-68
2024/03/10 09:46:38;;;;;;;84.63;61.37;;;;;;;13.76;100.00;100356.09;7724328;23;20218;-71
2024/03/10 09:49:59;;;;;;;429.93;232.73;;;;;;;13.69;100.00;100345.09;7739588;23;20219;-72
2024/03/10 09:53:20;;;;;;;113.33;103.97;;;;;;;14.24;100.00;100347.94;7737536;23;20215;-72
2024/03/10 09:56:41;;;;;;;55.17;49.53;;;;;;;14.32;100.00;100342.53;7730364;23;20207;-66
2024/03/10 10:00:12;;;;;;;34.37;30.77;;;;;;;14.27;100.00;100344.88;7741656;23;20298;-69
2024/03/10 10:03:34;;;;;;;24.03;21.57;;;;;;;14.24;100.00;100337.09;7734121;23;20511;-68
2024/03/10 10:06:56;;;;;;;27.23;20.67;;;;;;;14.11;100.00;100345.75;7725965;23;20468;-66
2024/03/10 10:10:20;;;;;;;22.93;19.97;;;;;;;13.70;100.00;100354.06;7732509;23;20219;-68
2024/03/10 10:13:42;;;;;;;22.90;17.53;;;;;;;13.80;100.00;100344.78;7719887;23;20220;-68
2024/03/10 10:17:03;;;;;;;24.80;19.27;;;;;;;13.72;100.00;100344.78;7723667;23;20219;-68
2024/03/10 10:20:26;;;;;;;22.47;18.90;;;;;;;14.08;100.00;100345.25;7727833;23;20561;-67
2024/03/10 10:23:48;;;;;;;23.37;19.33;;;;;;;15.29;100.00;100340.22;7731794;23;20595;-66
2024/03/10 10:27:10;;;;;;;19.70;17.60;;;;;;;17.89;86.79;100333.34;7724752;23;20219;-67
2024/03/10 10:30:31;;;;;;;18.43;16.20;;;;;;;18.46;75.30;100330.41;7733295;23;20533;-67
2024/03/10 10:33:52;;;;;;;23.90;19.40;;;;;;;18.79;73.03;100328.75;7729563;23;20219;-68
2024/03/10 10:37:14;;;;;;;18.83;16.37;;;;;;;18.62;70.66;100329.28;7726675;23;20214;-67
2024/03/10 10:40:36;;;;;;;20.65;17.70;;;;;;;19.66;68.54;100329.69;7730415;23;20577;-67
2024/03/10 10:43:58;;;;;;;19.88;16.58;;;;;;;20.00;62.99;100328.66;7721165;23;20691;-66
2024/03/10 10:47:20;;;;;;;21.58;16.58;;;;;;;19.00;63.81;100325.88;7724324;23;20211;-67
2024/03/10 10:50:42;;;;;;;18.27;16.13;;;;;;;18.62;65.36;100305.53;7671770;23;20450;-68
2024/03/10 10:54:09;;;;;;;18.40;14.93;;;;;;;20.26;62.00;100292.22;7723024;23;20210;-68
2024/03/10 10:57:32;;;;;;;20.02;17.42;;;;;;;19.46;59.60;100292.41;7730143;23;20215;-67
2024/03/10 11:00:58;;;;;;;19.65;16.42;;;;;;;18.56;63.09;100292.72;7725203;23;20211;-67
2024/03/10 11:04:24;;;;;;;21.13;17.83;;;;;;;19.19;62.29;100290.66;7733992;23;20210;-68
2024/03/10 11:07:46;;;;;;;19.58;17.35;;;;;;;19.70;58.80;100283.59;7712863;23;20310;-67
2024/03/10 11:11:14;;;;;;;19.23;15.55;;;;;;;19.35;60.47;100285.66;7729873;23;20577;-67
2024/03/10 11:14:38;;;;;;;18.02;16.02;;;;;;;18.63;64.52;100285.38;7700606;23;20358;-66
2024/03/10 11:18:29;;;;;;;21.75;16.60;;;;;;;18.59;64.92;100277.78;7690541;23;20464;-68
2024/03/10 11:21:51;;;;;;;18.75;16.40;;;;;;;18.13;67.78;100270.13;7690347;23;20257;-67
2024/03/10 11:25:16;;;;;;;20.48;18.42;;;;;;;18.64;74.87;100267.97;7695336;23;20306;-69
2024/03/10 11:28:49;;;;;;;22.65;18.67;;;;;;;17.51;75.66;100266.50;7698261;23;20208;-68
2024/03/10 11:32:32;;;;;;;20.73;18.10;;;;;;;16.48;75.92;100268.59;7693463;23;20215;-67
2024/03/10 11:35:53;;;;;;;19.05;16.90;;;;;;;16.96;80.98;100258.97;7684537;23;20220;-68
2024/03/10 11:39:19;;;;;;;18.75;16.70;;;;;;;18.00;74.40;100252.84;7694150;23;20216;-68
2024/03/10 11:42:41;;;;;;;20.58;17.92;;;;;;;18.89;69.14;100241.78;7692396;23;20212;-68
2024/03/10 11:46:04;;;;;;;20.98;17.75;;;;;;;20.05;62.76;100240.47;7694209;23;20216;-67
2024/03/10 11:49:26;;;;;;;18.33;15.82;;;;;;;20.55;58.80;100237.81;7699712;23;20216;-68
2024/03/10 11:52:46;;;;;;;19.35;17.05;;;;;;;23.10;49.49;100237.53;7677885;23;20212;-68
2024/03/10 11:56:08;;;;;;;20.08;16.27;;;;;;;23.44;43.54;100228.59;7696379;23;20212;-68
2024/03/10 11:59:30;;;;;;;16.45;14.85;;;;;;;24.57;43.58;100226.38;7699416;23;20542;-69
2024/03/10 12:02:53;;;;;;;18.58;16.20;;;;;;;25.51;39.41;100227.75;7678399;23;20211;-68
2024/03/10 12:06:14;;;;;;;19.52;17.02;;;;;;;25.13;39.62;100228.38;7692479;23;20919;-68
2024/03/10 12:09:36;;;;;;;19.15;16.55;;;;;;;23.32;41.40;100224.97;7694297;23;20207;-68
2024/03/10 12:12:57;;;;;;;20.15;16.48;;;;;;;24.69;41.41;100229.94;7708218;23;20533;-68
2024/03/10 12:16:18;;;;;;;18.27;15.93;;;;;;;24.01;40.89;100226.97;7723336;23;20516;-67
2024/03/10 12:19:42;;;;;;;16.60;14.88;;;;;;;22.66;43.96;100221.41;7735706;23;20211;-68
2024/03/10 12:23:03;;;;;;;17.05;15.30;;;;;;;24.07;42.05;100217.81;7729285;23;20215;-68
2024/03/10 12:26:25;;;;;;;17.67;15.88;;;;;;;22.74;42.88;100227.44;7726447;23;20298;-68
2024/03/10 12:29:47;;;;;;;18.00;16.20;;;;;;;22.68;44.28;100225.63;7736269;23;20207;-68
2024/03/10 12:33:09;;;;;;;17.60;15.80;;;;;;;20.57;50.03;100232.97;7731795;23;20214;-68
2024/03/10 12:36:33;;;;;;;19.02;17.00;;;;;;;19.42;53.78;100231.81;7728501;23;20215;-67
2024/03/10 12:39:57;;;;;;;18.95;16.75;;;;;;;18.90;57.79;100224.34;7735325;23;20219;-68
2024/03/10 12:43:18;;;;;;;18.90;16.90;;;;;;;18.12;61.93;100215.78;7735969;23;20218;-67
2024/03/10 12:46:40;;;;;;;18.75;16.13;;;;;;;17.27;66.64;100212.38;7730210;23;20211;-67
2024/03/10 12:50:03;;;;;;;17.27;15.48;;;;;;;17.43;68.10;100223.84;7715276;23;20258;-67
2024/03/10 12:53:46;;;;;;;18.77;16.80;;;;;;;16.64;69.35;100233.06;7735539;23;20528;-69
2024/03/10 12:57:07;;;;;;;19.95;16.90;;;;;;;16.24;74.81;100221.81;7727855;23;20207;-67
2024/03/10 13:00:35;;;;;;;18.60;16.65;;;;;;;16.02;76.96;100218.16;7733207;23;20219;-66
2024/03/10 13:03:55;;;;;;;18.00;16.20;;;;;;;15.48;81.22;100208.56;7732879;23;20206;-68
2024/03/10 13:07:16;;;;;;;19.67;17.65;;;;;;;15.16;84.45;100212.34;7727997;23;20487;-68
2024/03/10 13:10:39;;;;;;;19.23;17.00;;;;;;;15.31;88.03;100213.22;7726213;23;20207;-68
2024/03/10 13:14:00;;;;;;;21.73;16.67;;;;;;;15.61;86.70;100228.63;7733276;22;20224;-68
2024/03/10 13:17:21;;;;;;;19.93;17.47;;;;;;;15.51;87.00;100233.47;7697805;23;20443;-68
2024/03/10 13:20:44;;;;;;;18.97;16.90;;;;;;;15.18;89.96;100215.72;7686026;23;20306;-67
2024/03/10 13:24:05;;;;;;;19.80;16.10;;;;;;;15.13;92.46;100208.13;7697416;23;20230;-68
2024/03/10 13:27:28;;;;;;;20.80;16.53;;;;;;;14.43;96.52;100212.81;7728330;23;20223;-68
2024/03/10 13:30:49;;;;;;;17.63;15.73;;;;;;;14.60;100.00;100226.31;7695342;23;20215;-68
2024/03/10 13:34:14;;;;;;;17.43;15.63;;;;;;;14.63;100.00;100223.22;7708205;23;20263;-68
2024/03/10 13:37:35;;;;;;;20.97;16.93;;;;;;;14.40;100.00;100213.19;7715815;23;20285;-67
2024/03/10 13:40:58;;;;;;;23.13;17.53;;;;;;;14.51;100.00;100217.34;7717555;23;20223;-68
2024/03/10 13:44:24;;;;;;;19.77;16.40;;;;;;;14.37;100.00;100191.00;7738802;23;20580;-68
2024/03/10 13:47:51;;;;;;;21.30;16.00;;;;;;;14.63;100.00;100188.81;7718447;23;20227;-68
2024/03/10 13:51:12;;;;;;;21.97;17.00;;;;;;;14.35;100.00;100180.31;7718754;23;20207;-67
2024/03/10 13:54:32;;;;;;;18.40;15.73;;;;;;;14.77;100.00;100179.88;7725452;23;20249;-68
2024/03/10 13:57:54;;;;;;;22.60;17.33;;;;;;;15.00;100.00;100178.03;7716416;23;20390;-68
2024/03/10 14:01:17;;;;;;;19.30;16.90;;;;;;;14.79;100.00;100171.59;7730395;23;20211;-70
2024/03/10 14:04:37;;;;;;;19.30;15.53;;;;;;;15.13;100.00;100175.53;7735656;23;20210;-68
2024/03/10 14:07:58;;;;;;;18.77;16.63;;;;;;;15.26;100.00;100165.94;7734366;23;20234;-68
2024/03/10 14:11:19;;;;;;;17.97;16.10;;;;;;;15.42;100.00;100147.59;7721364;23;20315;-68
2024/03/10 14:14:41;;;;;;;19.57;16.37;;;;;;;15.43;100.00;100138.47;7736671;23;20502;-69
2024/03/10 14:18:04;;;;;;;17.67;15.70;;;;;;;15.97;100.00;100139.03;7724889;23;20250;-67
2024/03/10 14:21:26;;;;;;;16.47;14.80;;;;;;;16.96;93.24;100144.59;7729425;23;20252;-68
2024/03/10 14:24:47;;;;;;;19.40;16.50;;;;;;;18.06;91.13;100140.19;7735288;23;20207;-70
2024/03/10 14:28:08;;;;;;;15.48;13.70;;;;;;;19.12;82.77;100122.03;7733901;23;20278;-69
2024/03/10 14:31:31;;;;;;;17.73;14.17;;;;;;;19.44;78.26;100114.06;7728479;23;20273;-69
2024/03/10 14:34:53;;;;;;;16.50;14.20;;;;;;;19.58;74.54;100100.16;7737747;23;20202;-70
2024/03/10 14:38:14;;;;;;;17.35;15.52;;;;;;;18.71;72.34;100090.47;7735945;23;20211;-69
2024/03/10 14:41:35;;;;;;;19.17;15.23;;;;;;;18.76;74.20;100086.06;7728392;23;20310;-69
2024/03/10 14:44:56;;;;;;;17.77;15.33;;;;;;;17.38;75.58;100092.78;7729061;23;20219;-69
2024/03/10 14:48:17;;;;;;;17.20;14.93;;;;;;;16.50;85.50;100083.44;7733163;23;20207;-68
2024/03/10 14:51:39;;;;;;;16.90;14.93;;;;;;;16.34;90.95;100087.19;7724527;23;20703;-70
2024/03/10 14:55:04;;;;;;;18.90;16.67;;;;;;;15.18;91.85;100094.41;7737841;23;20507;-70
2024/03/10 14:58:25;;;;;;;17.53;13.47;;;;;;;14.76;100.00;100110.38;7735477;23;20211;-70
2024/03/10 15:01:46;;;;;;;17.70;14.93;;;;;;;14.58;100.00;100122.56;7698656;23;20211;-69
2024/03/10 15:05:09;;;;;;;16.13;13.73;;;;;;;14.20;100.00;100129.72;7695342;23;20215;-69
2024/03/10 15:08:31;;;;;;;16.57;14.40;;;;;;;13.84;100.00;100126.66;7734310;23;20223;-69
2024/03/10 15:11:53;;;;;;;18.97;15.50;;;;;;;13.96;100.00;100119.81;7714153;23;20211;-69
2024/03/10 15:15:17;;;;;;;15.67;14.03;;;;;;;14.06;100.00;100120.44;7732736;23;20222;-69
2024/03/10 15:18:38;;;;;;;16.87;14.40;;;;;;;13.81;100.00;100126.97;7732380;23;20215;-69
2024/03/10 15:22:01;;;;;;;17.37;14.47;;;;;;;13.48;100.00;100130.81;7728820;23;20215;-69
2024/03/10 15:25:25;;;;;;;17.83;15.30;;;;;;;13.54;100.00;100140.94;7733497;23;20215;-69
2024/03/10 15:28:46;;;;;;;16.57;12.90;;;;;;;13.41;100.00;100143.38;7734268;23;20219;-69
2024/03/10 15:32:10;;;;;;;19.17;13.40;;;;;;;13.45;100.00;100144.72;7709497;23;20214;-69
2024/03/10 15:35:31;;;;;;;14.87;13.37;;;;;;;13.51;100.00;100152.16;7708863;23;20219;-71
2024/03/10 15:38:52;;;;;;;15.83;14.20;;;;;;;13.42;100.00;100148.59;7740294;23;20297;-69
2024/03/10 15:42:18;;;;;;;16.30;14.10;;;;;;;13.28;100.00;100165.56;7720239;23;20215;-70